Time;durP1;ratioP1;P1;durP2;ratioP2;P2;SDS_P1;SDS_P2;PMS_P1;PMS_P2;Temp;Humidity;BMP_temperature;BMP_pressure;BME280_temperature;BME280_humidity;BME280_pressure;Samples;Min_cycle;Max_cycle;Signal;HPM_P1;HPM_P2
2021/11/24 06:26:00;;;;;;;50.47;26.55;;;8.80;99.90;;;;;;4220851;27;62325;-63
2021/11/24 06:28:56;;;;;;;49.88;24.13;;;9.00;99.90;;;;;;4195232;28;20414;-62
2021/11/24 06:30:56;;;;;;;47.97;23.70;;;9.00;99.90;;;;;;4195439;28;20055;-62
2021/11/24 06:32:57;;;;;;;46.53;24.33;;;9.00;99.90;;;;;;4195460;28;20033;-62
2021/11/24 06:34:57;;;;;;;50.70;25.77;;;8.90;99.90;;;;;;4195835;28;20060;-62
2021/11/24 06:36:58;;;;;;;52.25;25.83;;;8.80;99.90;;;;;;4195382;28;20044;-62
2021/11/24 06:38:59;;;;;;;52.28;24.80;;;8.80;99.90;;;;;;4195577;28;20060;-62
2021/11/24 06:40:59;;;;;;;49.80;24.10;;;8.80;99.90;;;;;;4195373;28;20044;-62
2021/11/24 06:43:00;;;;;;;45.03;23.17;;;8.80;99.90;;;;;;4195491;28;20044;-62
2021/11/24 06:45:01;;;;;;;49.95;23.50;;;8.70;99.90;;;;;;4195100;28;20024;-63
2021/11/24 06:47:02;;;;;;;51.75;24.73;;;8.70;99.90;;;;;;4195016;28;20031;-62
2021/11/24 06:49:03;;;;;;;49.45;23.98;;;8.70;99.90;;;;;;4195487;28;20033;-62
2021/11/24 06:51:03;;;;;;;51.63;24.55;;;8.70;99.90;;;;;;4195134;28;20486;-62
2021/11/24 06:53:04;;;;;;;48.20;22.80;;;8.60;99.90;;;;;;4195058;28;20040;-62
2021/11/24 06:55:06;;;;;;;56.55;25.67;;;8.60;99.90;;;;;;4195500;28;20028;-62
2021/11/24 06:57:06;;;;;;;54.43;24.87;;;8.50;99.90;;;;;;4195110;28;20387;-63
2021/11/24 06:59:07;;;;;;;52.10;24.35;;;8.50;99.90;;;;;;4195069;28;20063;-62
2021/11/24 07:01:08;;;;;;;52.08;24.65;;;8.50;99.90;;;;;;4195243;28;20040;-62
2021/11/24 07:03:08;;;;;;;51.83;23.85;;;8.50;99.90;;;;;;4194959;28;20028;-62
2021/11/24 07:05:10;;;;;;;52.55;23.83;;;8.40;99.90;;;;;;4195162;28;20490;-62
2021/11/24 07:07:10;;;;;;;58.58;26.48;;;8.40;99.90;;;;;;4194811;28;20036;-62
2021/11/24 07:09:12;;;;;;;57.67;25.90;;;8.40;99.90;;;;;;4195080;28;20036;-62
2021/11/24 07:11:14;;;;;;;59.63;25.92;;;8.40;99.90;;;;;;4195240;28;20026;-62
2021/11/24 07:13:15;;;;;;;59.17;25.40;;;8.40;99.90;;;;;;4194939;28;20033;-62
2021/11/24 07:15:15;;;;;;;58.08;25.55;;;8.40;99.90;;;;;;4195023;28;20036;-62
2021/11/24 07:17:16;;;;;;;54.80;24.60;;;8.40;99.90;;;;;;4194697;28;20037;-63
2021/11/24 07:19:21;;;;;;;59.97;24.38;;;8.40;99.90;;;;;;4194857;28;20107;-62
2021/11/24 07:21:21;;;;;;;58.58;24.50;;;8.40;99.90;;;;;;4194734;28;20081;-62
2021/11/24 07:23:22;;;;;;;53.28;24.48;;;8.40;99.90;;;;;;4194803;28;20498;-62
2021/11/24 07:25:23;;;;;;;56.75;24.13;;;8.40;99.90;;;;;;4194939;28;20065;-62
2021/11/24 07:27:23;;;;;;;60.47;25.33;;;8.40;99.90;;;;;;4194206;28;20055;-62
2021/11/24 07:29:24;;;;;;;53.78;23.75;;;8.40;99.90;;;;;;4194650;28;20028;-62
2021/11/24 07:31:25;;;;;;;59.10;25.92;;;8.40;99.90;;;;;;4194506;28;20033;-63
2021/11/24 07:33:26;;;;;;;59.38;25.90;;;8.40;99.90;;;;;;4194339;28;20498;-63
2021/11/24 07:35:27;;;;;;;54.33;23.98;;;8.40;99.90;;;;;;4194531;28;20033;-63
2021/11/24 07:37:28;;;;;;;54.00;23.05;;;8.40;99.90;;;;;;4194521;28;20383;-63
2021/11/24 07:39:29;;;;;;;55.60;23.73;;;8.40;99.90;;;;;;4187834;28;20067;-63
2021/11/24 07:41:29;;;;;;;59.90;24.88;;;8.40;99.90;;;;;;4183603;28;20037;-63
2021/11/24 07:43:31;;;;;;;55.75;24.23;;;8.40;99.90;;;;;;4183311;28;20085;-63
2021/11/24 07:45:32;;;;;;;54.00;23.80;;;8.50;99.90;;;;;;4183532;28;20056;-63
2021/11/24 07:47:33;;;;;;;56.60;25.13;;;8.50;99.90;;;;;;4182684;28;20036;-63
2021/11/24 07:49:34;;;;;;;59.28;24.80;;;8.50;99.90;;;;;;4183945;28;20455;-63
2021/11/24 07:51:35;;;;;;;55.60;24.40;;;8.50;99.90;;;;;;4183460;28;20024;-63
2021/11/24 07:53:35;;;;;;;60.53;24.40;;;8.50;99.90;;;;;;4183211;28;20035;-63
2021/11/24 07:55:36;;;;;;;58.35;22.85;;;8.50;99.90;;;;;;4183140;28;20086;-63
2021/11/24 07:57:36;;;;;;;58.97;24.20;;;8.50;99.90;;;;;;4183165;28;20446;-63
2021/11/24 07:59:37;;;;;;;62.42;25.38;;;8.50;99.90;;;;;;4183320;28;20025;-63
2021/11/24 08:01:38;;;;;;;67.72;27.25;;;8.50;99.90;;;;;;4183243;28;20033;-63
2021/11/24 08:03:39;;;;;;;56.78;24.08;;;8.50;99.90;;;;;;4183250;28;20114;-63
2021/11/24 08:05:40;;;;;;;56.00;23.33;;;8.50;99.90;;;;;;4183257;28;20025;-63
2021/11/24 08:07:40;;;;;;;58.92;24.10;;;8.50;99.90;;;;;;4183095;28;20040;-63
2021/11/24 08:09:41;;;;;;;61.55;24.88;;;8.60;99.90;;;;;;4183297;28;20033;-63
2021/11/24 08:11:42;;;;;;;61.78;23.27;;;8.50;99.90;;;;;;4183170;28;20036;-63
2021/11/24 08:13:42;;;;;;;67.53;23.75;;;8.50;99.90;;;;;;4182835;28;20029;-63
2021/11/24 08:15:43;;;;;;;62.30;23.17;;;8.50;99.90;;;;;;4182854;28;20029;-63
2021/11/24 08:17:43;;;;;;;67.88;23.90;;;8.60;99.90;;;;;;4183023;28;20575;-63
2021/11/24 08:19:44;;;;;;;64.43;23.23;;;8.60;99.90;;;;;;4182940;28;20025;-63
2021/11/24 08:21:45;;;;;;;65.00;23.75;;;8.60;99.90;;;;;;4182740;28;20169;-63
2021/11/24 08:23:45;;;;;;;59.13;22.88;;;8.60;99.90;;;;;;4182954;28;20029;-63
2021/11/24 08:25:46;;;;;;;65.45;24.85;;;8.60;99.90;;;;;;4182627;28;20090;-63
2021/11/24 08:27:47;;;;;;;59.22;22.40;;;8.60;99.90;;;;;;4182465;28;20140;-63
2021/11/24 08:29:47;;;;;;;65.28;24.00;;;8.60;99.90;;;;;;4182822;28;20033;-63
2021/11/24 08:31:48;;;;;;;62.15;23.25;;;8.60;99.90;;;;;;4182693;28;20109;-63
2021/11/24 08:33:49;;;;;;;69.53;25.13;;;8.60;99.90;;;;;;4182768;28;20391;-63
2021/11/24 08:35:49;;;;;;;70.38;24.23;;;8.70;99.90;;;;;;4182817;28;20364;-63
2021/11/24 08:37:50;;;;;;;66.00;23.98;;;8.70;99.90;;;;;;4182472;28;20492;-63
2021/11/24 08:39:51;;;;;;;64.68;24.00;;;8.70;99.90;;;;;;4182810;28;20391;-63
2021/11/24 08:41:51;;;;;;;68.82;25.65;;;8.70;99.90;;;;;;4182626;28;20371;-63
2021/11/24 08:43:52;;;;;;;68.95;25.60;;;8.70;99.90;;;;;;4182588;28;20040;-63
2021/11/24 08:45:52;;;;;;;71.97;26.73;;;8.70;99.90;;;;;;4182309;28;20083;-63
2021/11/24 08:47:53;;;;;;;67.72;25.30;;;8.70;99.90;;;;;;4182399;28;20048;-63
2021/11/24 08:49:54;;;;;;;70.53;26.50;;;8.70;99.90;;;;;;4182714;28;20041;-63
2021/11/24 08:51:54;;;;;;;76.40;27.92;;;8.70;99.90;;;;;;4181724;28;20036;-63
2021/11/24 08:53:55;;;;;;;64.03;24.63;;;8.80;99.90;;;;;;4182135;28;20040;-63
2021/11/24 08:55:56;;;;;;;64.03;25.05;;;8.80;99.90;;;;;;4182387;28;20041;-63
2021/11/24 08:57:57;;;;;;;71.35;26.70;;;8.80;99.90;;;;;;4182246;28;20373;-63
2021/11/24 08:59:58;;;;;;;64.38;24.92;;;8.80;99.90;;;;;;4182388;28;20115;-63
2021/11/24 09:01:58;;;;;;;63.35;24.83;;;8.80;99.90;;;;;;4182354;28;20075;-63
2021/11/24 09:03:59;;;;;;;68.95;25.20;;;8.80;99.90;;;;;;4182299;28;20059;-63
2021/11/24 09:06:00;;;;;;;72.05;25.95;;;8.80;99.90;;;;;;4181774;28;20483;-63
2021/11/24 09:08:01;;;;;;;71.70;25.15;;;8.80;99.90;;;;;;4182150;28;20064;-63
2021/11/24 09:10:05;;;;;;;67.88;24.15;;;8.80;99.90;;;;;;4182099;28;20083;-63
2021/11/24 09:12:07;;;;;;;70.35;25.23;;;8.80;99.90;;;;;;4181910;28;20383;-63
2021/11/24 09:14:07;;;;;;;70.80;26.30;;;8.80;99.90;;;;;;4181948;28;20040;-63
2021/11/24 09:16:08;;;;;;;77.45;27.00;;;8.70;99.90;;;;;;4181841;28;20090;-63
2021/11/24 09:18:09;;;;;;;68.32;25.10;;;8.70;99.90;;;;;;4182090;28;20169;-63
2021/11/24 09:20:10;;;;;;;77.32;28.20;;;8.70;99.90;;;;;;4181842;28;20032;-63
2021/11/24 09:22:11;;;;;;;74.07;27.45;;;8.60;99.90;;;;;;4181882;28;20037;-63
2021/11/24 09:24:14;;;;;;;74.40;25.55;;;8.70;99.90;;;;;;4181740;28;20041;-63
2021/11/24 09:28:19;;;;;;;68.75;24.27;;;8.70;99.90;;;;;;4181929;28;20059;-63
2021/11/24 09:30:20;;;;;;;68.55;24.77;;;8.70;99.90;;;;;;4181524;28;20029;-63
2021/11/24 09:32:20;;;;;;;71.20;25.10;;;8.70;99.90;;;;;;4181652;28;20060;-63
2021/11/24 09:34:22;;;;;;;75.18;24.40;;;8.70;99.90;;;;;;4181546;28;20493;-63
2021/11/24 09:36:23;;;;;;;73.50;25.30;;;8.70;99.90;;;;;;4181235;28;20029;-63
2021/11/24 09:38:24;;;;;;;79.38;26.65;;;8.70;99.90;;;;;;4181705;28;20108;-63
2021/11/24 09:40:25;;;;;;;71.75;24.52;;;8.70;99.90;;;;;;4181460;28;20029;-63
2021/11/24 09:42:28;;;;;;;70.75;25.40;;;8.70;99.90;;;;;;4181691;28;20028;-63
2021/11/24 09:44:28;;;;;;;;;;;8.70;99.90;;;;;;4182112;28;20032;-63
2021/11/24 09:46:30;;;;;;;81.80;26.10;;;8.70;99.90;;;;;;4181143;28;19905;-63
2021/11/24 09:48:32;;;;;;;78.50;25.90;;;8.70;99.90;;;;;;4181301;28;20480;-63
2021/11/24 09:50:36;;;;;;;80.07;26.25;;;8.70;99.90;;;;;;4181284;28;20068;-63
2021/11/24 09:52:37;;;;;;;83.15;26.58;;;8.70;99.90;;;;;;4181606;28;20119;-63
2021/11/24 09:54:39;;;;;;;81.75;26.83;;;8.70;99.90;;;;;;4181477;28;20032;-63
2021/11/24 09:56:41;;;;;;;81.10;26.40;;;8.70;99.90;;;;;;4181470;28;20498;-63
2021/11/24 09:58:42;;;;;;;69.53;24.27;;;8.70;99.90;;;;;;4181773;28;20503;-63
2021/11/24 10:00:44;;;;;;;84.10;27.38;;;8.70;99.90;;;;;;4181129;28;20029;-63
2021/11/24 10:02:44;;;;;;;77.60;25.80;;;8.70;99.90;;;;;;4181297;28;20097;-63
2021/11/24 10:04:46;;;;;;;76.10;25.92;;;8.70;99.90;;;;;;4181016;28;20033;-63
2021/11/24 10:06:48;;;;;;;78.13;26.40;;;8.80;99.90;;;;;;4180993;28;20029;-63
2021/11/24 10:08:51;;;;;;;69.95;24.58;;;8.80;99.90;;;;;;4181163;28;20322;-63
2021/11/24 10:10:51;;;;;;;68.25;24.70;;;8.80;99.90;;;;;;4181057;28;20104;-63
2021/11/24 10:12:53;;;;;;;74.15;25.95;;;8.80;99.90;;;;;;4180969;28;20041;-63
2021/11/24 10:14:54;;;;;;;68.93;25.37;;;8.80;99.90;;;;;;4181370;28;20033;-63
2021/11/24 10:17:08;;;;;;;73.82;26.52;;;8.80;99.90;;;;;;4180611;28;20264;-63
2021/11/24 10:19:11;;;;;;;63.72;24.67;;;8.80;99.90;;;;;;4181405;28;20037;-63
2021/11/24 10:21:20;;;;;;;77.75;26.52;;;8.80;99.90;;;;;;4180646;28;20051;-63
2021/11/24 10:23:38;;;;;;;81.90;27.35;;;8.80;99.90;;;;;;4181171;28;20060;-63
2021/11/24 10:25:39;;;;;;;80.90;27.98;;;8.80;99.90;;;;;;4180577;28;20059;-63
2021/11/24 10:27:43;;;;;;;76.35;26.70;;;8.80;99.90;;;;;;4180929;28;20061;-63
2021/11/24 10:29:54;;;;;;;76.00;26.45;;;8.70;99.90;;;;;;4180806;28;20037;-63
2021/11/24 10:32:02;;;;;;;74.85;25.80;;;8.70;99.90;;;;;;4181080;28;20130;-63
2021/11/24 10:34:23;;;;;;;60.55;21.77;;;8.70;99.90;;;;;;4181318;28;20033;-63
2021/11/24 10:36:26;;;;;;;67.20;22.83;;;8.70;99.90;;;;;;4180392;28;20076;-63
2021/11/24 10:38:26;;;;;;;63.17;25.00;;;8.70;99.90;;;;;;4180829;28;20040;-63
2021/11/24 10:40:40;;;;;;;69.85;24.60;;;8.70;99.90;;;;;;4180490;28;20382;-63
2021/11/24 10:42:46;;;;;;;63.17;23.70;;;8.70;99.90;;;;;;4180941;28;20403;-63
2021/11/24 10:44:50;;;;;;;65.45;22.17;;;8.80;99.90;;;;;;4181176;28;20029;-63
2021/11/24 10:46:54;;;;;;;61.78;22.80;;;8.80;99.90;;;;;;4180400;28;20036;-63
2021/11/24 10:49:07;;;;;;;62.65;23.27;;;8.80;99.90;;;;;;4179603;28;20056;-63
2021/11/24 10:51:27;;;;;;;66.82;23.58;;;8.80;99.90;;;;;;4180678;28;20037;-63
2021/11/24 10:53:28;;;;;;;56.42;21.98;;;8.90;99.90;;;;;;4180951;28;20104;-63
2021/11/24 10:55:33;;;;;;;73.20;26.42;;;8.90;99.90;;;;;;4180786;28;20063;-63
2021/11/24 10:57:36;;;;;;;64.80;23.50;;;8.90;99.90;;;;;;4180926;28;20037;-63
2021/11/24 10:59:40;;;;;;;67.57;25.63;;;8.90;99.90;;;;;;4180987;28;20063;-63
2021/11/24 11:01:41;;;;;;;71.43;25.75;;;8.90;99.90;;;;;;4180386;28;20040;-63
2021/11/24 11:03:43;;;;;;;65.72;25.48;;;8.90;99.90;;;;;;4180767;28;20033;-63
2021/11/24 11:05:46;;;;;;;65.30;24.23;;;8.90;99.90;;;;;;4180322;28;20044;-63
2021/11/24 11:07:50;;;;;;;64.95;25.10;;;8.90;99.90;;;;;;4180655;28;20409;-63
2021/11/24 11:10:12;;;;;;;66.53;24.85;;;8.90;99.90;;;;;;4180712;28;20159;-63
2021/11/24 11:12:12;;;;;;;66.50;24.38;;;9.00;99.90;;;;;;4180573;28;20078;-63
2021/11/24 11:14:20;;;;;;;66.10;25.13;;;9.00;99.90;;;;;;4181423;28;20475;-63
2021/11/24 11:16:20;;;;;;;68.65;25.92;;;9.00;99.90;;;;;;4183703;28;20036;-63
2021/11/24 11:18:27;;;;;;;67.38;26.45;;;9.00;99.90;;;;;;4183692;28;20051;-63
2021/11/24 11:20:32;;;;;;;71.38;26.25;;;9.00;99.90;;;;;;4183565;28;20519;-63
2021/11/24 11:22:32;;;;;;;69.20;26.73;;;9.10;99.90;;;;;;4183825;28;20029;-63
2021/11/24 11:24:33;;;;;;;66.20;24.95;;;9.10;99.90;;;;;;4183568;28;20391;-63
2021/11/24 11:26:34;;;;;;;75.15;26.80;;;9.10;99.90;;;;;;4183372;28;20124;-63
2021/11/24 11:28:46;;;;;;;70.97;26.13;;;9.10;99.90;;;;;;4183146;28;20067;-63
2021/11/24 11:30:50;;;;;;;67.57;26.27;;;9.10;99.90;;;;;;4183463;28;20060;-63
2021/11/24 11:32:51;;;;;;;73.50;25.90;;;9.10;99.90;;;;;;4183571;28;20167;-63
2021/11/24 11:34:52;;;;;;;64.40;26.25;;;9.10;99.90;;;;;;4183393;28;20040;-63
2021/11/24 11:36:53;;;;;;;69.78;27.23;;;9.20;99.90;;;;;;4182964;28;20037;-63
2021/11/24 11:38:57;;;;;;;65.05;25.80;;;9.20;99.90;;;;;;4183372;28;20369;-63
2021/11/24 11:41:00;;;;;;;63.20;26.50;;;9.20;99.90;;;;;;4182990;28;20051;-63
2021/11/24 11:43:02;;;;;;;67.57;27.25;;;9.20;99.90;;;;;;4183212;28;20044;-63
2021/11/24 11:45:06;;;;;;;61.92;25.60;;;9.30;99.90;;;;;;4183383;28;20021;-63
2021/11/24 11:47:08;;;;;;;79.03;28.55;;;9.30;99.90;;;;;;4183186;28;20127;-63
2021/11/24 11:49:20;;;;;;;74.82;30.10;;;9.20;99.90;;;;;;4183186;28;20141;-63
2021/11/24 11:51:36;;;;;;;72.63;28.67;;;9.30;99.90;;;;;;4183222;28;20067;-63
2021/11/24 11:53:48;;;;;;;71.10;28.05;;;9.30;99.90;;;;;;4183369;28;20040;-63
2021/11/24 11:56:11;;;;;;;70.93;29.17;;;9.30;99.90;;;;;;4182752;28;20025;-63
2021/11/24 11:58:22;;;;;;;;;;;9.30;99.90;;;;;;4183618;28;20132;-63
2021/11/24 12:00:31;;;;;;;62.15;26.30;;;9.30;99.90;;;;;;4182939;28;19904;-63
2021/11/24 12:02:31;;;;;;;58.10;25.83;;;9.30;99.90;;;;;;4183072;28;20442;-64
2021/11/24 12:04:42;;;;;;;65.63;26.60;;;9.30;99.90;;;;;;4183251;28;20039;-63
2021/11/24 12:06:52;;;;;;;68.97;27.35;;;9.30;99.90;;;;;;4182674;28;20056;-63
2021/11/24 12:09:13;;;;;;;69.32;28.08;;;9.30;99.90;;;;;;4183062;28;20037;-63
2021/11/24 12:11:15;;;;;;;66.15;26.38;;;9.30;99.90;;;;;;4182879;28;20037;-64
2021/11/24 12:13:16;;;;;;;64.17;27.17;;;9.30;99.90;;;;;;4183029;28;20031;-63
2021/11/24 12:15:28;;;;;;;73.30;28.92;;;9.30;99.90;;;;;;4182546;28;20116;-63
2021/11/24 12:17:39;;;;;;;84.33;32.23;;;9.20;99.90;;;;;;4182771;28;20025;-64
2021/11/24 12:19:40;;;;;;;70.03;29.20;;;9.20;99.90;;;;;;4182759;28;20072;-63
2021/11/24 12:21:53;;;;;;;75.18;29.67;;;9.20;99.90;;;;;;4182594;28;20037;-64
2021/11/24 12:24:08;;;;;;;67.22;28.17;;;9.20;99.90;;;;;;4182749;28;20083;-64
2021/11/24 12:26:18;;;;;;;72.15;28.05;;;9.30;99.90;;;;;;4182397;28;20025;-64
2021/11/24 12:28:20;;;;;;;67.43;28.45;;;9.30;99.90;;;;;;4182569;28;20499;-64
2021/11/24 12:30:36;;;;;;;65.30;27.02;;;9.30;99.90;;;;;;4182401;28;20391;-64
2021/11/24 12:32:37;;;;;;;59.53;26.52;;;9.30;99.90;;;;;;4182493;28;20060;-64
2021/11/24 12:34:48;;;;;;;64.53;26.88;;;9.30;99.90;;;;;;4182459;28;20044;-64
2021/11/24 12:36:50;;;;;;;68.90;28.67;;;9.40;99.90;;;;;;4182201;28;20091;-64
2021/11/24 12:38:56;;;;;;;67.40;28.92;;;9.30;99.90;;;;;;4182637;28;20402;-64
2021/11/24 12:41:09;;;;;;;61.28;26.73;;;9.40;99.90;;;;;;4182360;28;20025;-64
2021/11/24 12:43:22;;;;;;;69.82;30.73;;;9.40;99.90;;;;;;4182371;28;20494;-64
2021/11/24 12:45:23;;;;;;;;;;;9.40;99.90;;;;;;4182648;28;20059;-64
2021/11/24 12:47:24;;;;;;;59.30;26.10;;;9.40;99.90;;;;;;4182068;28;20349;-63
2021/11/24 12:49:26;;;;;;;67.53;28.50;;;9.40;99.90;;;;;;4182243;28;20040;-64
2021/11/24 12:51:33;;;;;;;69.63;32.53;;;9.50;99.90;;;;;;4182060;28;20036;-64
2021/11/24 12:53:37;;;;;;;83.05;35.60;;;9.40;99.90;;;;;;4182189;28;20067;-64
2021/11/24 12:55:38;;;;;;;76.28;34.17;;;9.40;99.90;;;;;;4182291;28;20024;-64
2021/11/24 12:57:39;;;;;;;83.60;34.92;;;9.40;99.90;;;;;;4182581;28;20039;-64
2021/11/24 12:59:42;;;;;;;88.75;38.08;;;9.40;99.90;;;;;;4182095;28;20090;-64
2021/11/24 13:01:50;;;;;;;82.40;37.72;;;9.40;99.90;;;;;;4181914;28;20483;-64
2021/11/24 13:03:56;;;;;;;74.35;34.67;;;9.40;99.90;;;;;;4182213;28;20459;-64
2021/11/24 13:05:58;;;;;;;65.72;31.83;;;9.30;99.90;;;;;;4181477;28;20029;-64
2021/11/24 13:07:59;;;;;;;71.10;32.60;;;9.30;99.90;;;;;;4182016;28;20039;-64
2021/11/24 13:09:59;;;;;;;71.53;31.30;;;9.40;99.90;;;;;;4182210;28;20061;-64
2021/11/24 13:12:08;;;;;;;67.13;30.65;;;9.40;99.90;;;;;;4181747;28;20032;-64
2021/11/24 13:14:08;;;;;;;60.28;29.88;;;9.40;99.90;;;;;;4181786;28;20025;-64
2021/11/24 13:16:20;;;;;;;60.85;29.23;;;9.40;99.90;;;;;;4181613;28;20375;-64
2021/11/24 13:18:22;;;;;;;62.45;29.52;;;9.40;99.90;;;;;;4181904;28;20025;-64
2021/11/24 13:20:31;;;;;;;60.85;27.80;;;9.40;99.90;;;;;;4181478;28;20379;-64
2021/11/24 13:22:34;;;;;;;56.33;27.17;;;9.40;99.90;;;;;;4181620;28;20068;-64
2021/11/24 13:24:36;;;;;;;54.72;26.33;;;9.40;99.90;;;;;;4181791;28;20079;-64
2021/11/24 13:26:37;;;;;;;54.88;25.98;;;9.40;99.90;;;;;;4181492;28;20029;-64
2021/11/24 13:28:38;;;;;;;53.28;25.95;;;9.40;99.90;;;;;;4181351;28;20529;-64
2021/11/24 13:30:53;;;;;;;49.55;24.10;;;9.40;99.90;;;;;;4181551;28;20036;-64
2021/11/24 13:33:12;;;;;;;53.83;24.80;;;9.50;99.90;;;;;;4181421;28;20467;-64
2021/11/24 13:35:13;;;;;;;53.28;25.23;;;9.50;99.90;;;;;;4181419;28;20040;-64
2021/11/24 13:37:14;;;;;;;57.45;26.60;;;9.50;99.90;;;;;;4181103;28;20478;-64
2021/11/24 13:39:14;;;;;;;54.13;25.52;;;9.50;99.90;;;;;;4181328;28;20428;-64
2021/11/24 13:41:19;;;;;;;50.65;25.38;;;9.50;99.90;;;;;;4181192;28;20025;-64
2021/11/24 13:43:34;;;;;;;51.10;24.38;;;9.50;99.90;;;;;;4181639;28;20525;-64
2021/11/24 13:45:38;;;;;;;46.00;23.77;;;9.50;99.90;;;;;;4181045;28;20430;-64
2021/11/24 13:47:39;;;;;;;52.83;25.73;;;9.50;99.90;;;;;;4181430;28;20025;-64
2021/11/24 13:49:46;;;;;;;47.80;24.02;;;9.50;99.90;;;;;;4181670;28;20399;-64
2021/11/24 13:51:58;;;;;;;47.97;23.60;;;9.50;99.90;;;;;;4180841;28;20372;-64
2021/11/24 13:54:07;;;;;;;46.83;24.90;;;9.50;99.90;;;;;;4181431;28;20068;-64
2021/11/24 13:56:21;;;;;;;50.28;24.98;;;9.50;99.90;;;;;;4181031;28;20037;-64
2021/11/24 13:58:22;;;;;;;47.75;23.70;;;9.50;99.90;;;;;;4181230;28;20094;-64
2021/11/24 14:00:23;;;;;;;46.92;23.90;;;9.50;99.90;;;;;;4180825;28;20082;-64
2021/11/24 14:02:25;;;;;;;45.60;24.35;;;9.50;99.90;;;;;;4181060;28;20068;-64
2021/11/24 14:04:35;;;;;;;47.75;24.02;;;9.50;99.90;;;;;;4181226;28;20029;-64
2021/11/24 14:06:39;;;;;;;50.50;25.58;;;9.50;99.90;;;;;;4181216;28;20446;-64
2021/11/24 14:08:40;;;;;;;48.15;24.75;;;9.60;99.90;;;;;;4181413;28;20033;-64
2021/11/24 14:10:41;;;;;;;47.55;22.80;;;9.50;99.90;;;;;;4180668;28;20384;-64
2021/11/24 14:12:43;;;;;;;50.35;23.08;;;9.50;99.90;;;;;;4181219;28;20114;-64
2021/11/24 14:14:51;;;;;;;44.72;22.80;;;9.50;99.90;;;;;;4181127;28;20044;-64
2021/11/24 14:16:58;;;;;;;47.50;23.33;;;9.60;99.90;;;;;;4180865;28;20120;-64
2021/11/24 14:19:12;;;;;;;43.55;22.25;;;9.60;99.90;;;;;;4181106;28;20032;-64
2021/11/24 14:21:13;;;;;;;44.17;20.88;;;9.50;99.90;;;;;;4180592;28;20029;-64
2021/11/24 14:23:21;;;;;;;39.15;21.02;;;9.50;99.90;;;;;;4179831;28;20098;-64
2021/11/24 14:25:25;;;;;;;44.42;22.60;;;9.50;99.90;;;;;;4177211;28;20035;-64
2021/11/24 14:27:26;;;;;;;44.60;21.88;;;9.50;99.90;;;;;;4181044;28;20112;-64
2021/11/24 14:29:27;;;;;;;41.90;21.02;;;9.40;99.90;;;;;;4180736;28;20029;-64
2021/11/24 14:31:28;;;;;;;34.13;19.00;;;9.40;99.90;;;;;;4180696;28;20033;-64
2021/11/24 14:33:31;;;;;;;39.80;20.50;;;9.40;99.90;;;;;;4181052;28;20468;-64
2021/11/24 14:35:32;;;;;;;45.45;21.65;;;9.30;99.90;;;;;;4180651;28;20086;-64
2021/11/24 14:37:33;;;;;;;35.72;19.23;;;9.30;99.90;;;;;;4180725;28;20036;-64
2021/11/24 14:39:34;;;;;;;39.13;19.33;;;9.30;99.90;;;;;;4180736;28;20037;-64
2021/11/24 14:41:35;;;;;;;36.45;18.85;;;9.30;99.90;;;;;;4180382;28;20150;-64
2021/11/24 14:43:35;;;;;;;39.13;19.10;;;9.30;99.90;;;;;;4180588;28;20029;-64
2021/11/24 14:45:36;;;;;;;40.95;18.95;;;9.30;99.90;;;;;;4180610;28;20036;-64
2021/11/24 14:47:38;;;;;;;35.28;18.75;;;9.30;99.90;;;;;;4180835;28;20105;-64
2021/11/24 14:49:39;;;;;;;35.05;18.33;;;9.30;99.90;;;;;;4181938;28;20041;-63
2021/11/24 14:51:39;;;;;;;39.13;19.70;;;9.40;99.90;;;;;;4183951;28;20474;-64
2021/11/24 14:53:40;;;;;;;40.25;19.63;;;9.40;99.90;;;;;;4183943;28;20382;-64
2021/11/24 14:55:40;;;;;;;39.60;20.52;;;9.30;99.90;;;;;;4184166;28;20133;-64
2021/11/24 14:57:43;;;;;;;40.05;20.15;;;9.40;99.90;;;;;;4184106;28;20037;-64
2021/11/24 14:59:43;;;;;;;47.42;22.63;;;9.30;99.90;;;;;;4183863;28;20025;-64
2021/11/24 15:01:45;;;;;;;36.55;18.58;;;9.30;99.90;;;;;;4183709;28;20033;-64
2021/11/24 15:03:46;;;;;;;37.60;19.50;;;9.40;99.90;;;;;;4184262;28;20029;-64
2021/11/24 15:05:46;;;;;;;34.35;18.55;;;9.30;99.90;;;;;;4183693;28;20040;-64
2021/11/24 15:07:48;;;;;;;30.23;16.42;;;9.30;99.90;;;;;;4183913;28;20553;-64
2021/11/24 15:09:49;;;;;;;27.90;16.13;;;9.30;99.90;;;;;;4183945;28;20041;-64
2021/11/24 15:11:50;;;;;;;28.90;15.68;;;9.30;99.90;;;;;;4183426;28;20036;-64
2021/11/24 15:13:51;;;;;;;26.80;14.80;;;9.30;99.90;;;;;;4183744;28;20574;-64
2021/11/24 15:15:52;;;;;;;29.38;14.68;;;9.30;99.90;;;;;;4183650;28;20025;-64
2021/11/24 15:17:52;;;;;;;23.77;12.73;;;9.30;99.90;;;;;;4183751;28;20035;-64
2021/11/24 15:19:53;;;;;;;24.35;13.15;;;9.30;99.90;;;;;;4183866;28;20056;-64
2021/11/24 15:21:54;;;;;;;23.35;12.52;;;9.40;99.90;;;;;;4183579;28;20055;-64
2021/11/24 15:23:55;;;;;;;23.73;12.18;;;9.40;99.90;;;;;;4184061;28;20025;-64
2021/11/24 15:25:56;;;;;;;20.27;11.10;;;9.30;99.90;;;;;;4183471;28;20104;-64
2021/11/24 15:27:56;;;;;;;23.05;11.98;;;9.40;99.90;;;;;;4183414;28;20052;-64
2021/11/24 15:29:57;;;;;;;21.80;12.48;;;9.40;99.90;;;;;;4184005;28;20069;-64
2021/11/24 15:31:58;;;;;;;20.58;11.45;;;9.40;99.90;;;;;;4183638;28;20471;-64
2021/11/24 15:33:59;;;;;;;20.15;11.48;;;9.40;99.90;;;;;;4183458;28;20033;-64
2021/11/24 15:36:00;;;;;;;17.65;11.13;;;9.40;99.90;;;;;;4183349;28;20037;-64
2021/11/24 15:38:00;;;;;;;21.90;12.05;;;9.40;99.90;;;;;;4183597;28;20040;-64
2021/11/24 15:40:02;;;;;;;21.30;11.60;;;9.40;99.90;;;;;;4183374;28;20037;-64
2021/11/24 15:42:05;;;;;;;21.85;11.70;;;9.40;99.90;;;;;;4183172;28;20029;-64
2021/11/24 15:44:07;;;;;;;21.05;11.88;;;9.40;99.90;;;;;;4183481;28;20376;-64
2021/11/24 15:46:08;;;;;;;18.27;10.60;;;9.40;99.90;;;;;;4183289;28;20039;-64
2021/11/24 15:48:08;;;;;;;18.75;10.98;;;9.40;99.90;;;;;;4183444;28;20033;-64
2021/11/24 15:50:09;;;;;;;18.27;10.25;;;9.40;99.90;;;;;;4183065;28;20056;-63
2021/11/24 15:52:14;;;;;;;16.90;9.95;;;9.40;99.90;;;;;;4183405;28;20033;-63
2021/11/24 15:54:16;;;;;;;17.80;9.93;;;9.40;99.90;;;;;;4183564;28;20025;-63
2021/11/24 15:56:21;;;;;;;20.35;11.13;;;9.40;99.90;;;;;;4182759;28;20036;-63
2021/11/24 15:58:22;;;;;;;21.90;10.55;;;9.30;99.90;;;;;;4182854;28;20044;-63
2021/11/24 16:00:23;;;;;;;17.85;10.25;;;9.40;99.90;;;;;;4181955;28;20029;-63
2021/11/24 16:02:24;;;;;;;17.63;9.80;;;9.30;99.90;;;;;;4182626;28;20106;-63
2021/11/24 16:04:25;;;;;;;21.17;10.63;;;9.30;99.90;;;;;;4182809;28;20033;-63
2021/11/24 16:06:26;;;;;;;15.98;9.18;;;9.30;99.90;;;;;;4182433;28;20021;-63
2021/11/24 16:08:26;;;;;;;15.85;9.45;;;9.30;99.90;;;;;;4182424;28;20121;-63
2021/11/24 16:10:28;;;;;;;15.30;9.13;;;9.30;99.90;;;;;;4182401;28;20398;-63
2021/11/24 16:12:29;;;;;;;16.83;10.32;;;9.30;99.90;;;;;;4182263;28;20040;-63
2021/11/24 16:14:29;;;;;;;16.15;9.32;;;9.30;99.90;;;;;;4183015;28;20033;-63
2021/11/24 16:16:30;;;;;;;23.13;11.18;;;9.30;99.90;;;;;;4182560;28;20033;-63
2021/11/24 16:18:31;;;;;;;16.17;9.00;;;9.30;99.90;;;;;;4183316;28;20444;-63
2021/11/24 16:20:32;;;;;;;15.75;8.57;;;9.30;99.90;;;;;;4182476;28;20095;-63
2021/11/24 16:22:33;;;;;;;16.27;9.38;;;9.30;99.90;;;;;;4183199;28;20159;-63
2021/11/24 16:24:34;;;;;;;15.00;9.23;;;9.30;99.90;;;;;;4182964;28;20041;-63
2021/11/24 16:26:34;;;;;;;17.40;10.25;;;9.30;99.90;;;;;;4182437;28;20377;-63
2021/11/24 16:28:35;;;;;;;16.60;9.45;;;9.30;99.90;;;;;;4182395;28;20060;-63
2021/11/24 16:30:36;;;;;;;15.18;8.82;;;9.30;99.90;;;;;;4182554;28;20491;-63
2021/11/24 16:32:37;;;;;;;16.08;9.45;;;9.30;99.90;;;;;;4182886;28;20029;-63
2021/11/24 16:34:39;;;;;;;17.17;9.02;;;9.30;99.90;;;;;;4182927;28;20391;-63
2021/11/24 16:36:39;;;;;;;16.13;8.63;;;9.30;99.90;;;;;;4182525;28;20387;-63
2021/11/24 16:38:40;;;;;;;15.10;8.77;;;9.30;99.90;;;;;;4182728;28;20112;-63
2021/11/24 16:40:41;;;;;;;13.80;8.57;;;9.30;99.90;;;;;;4182409;28;20032;-63
2021/11/24 16:42:42;;;;;;;14.38;8.27;;;9.40;99.90;;;;;;4182700;28;20104;-63
2021/11/24 16:44:43;;;;;;;14.27;7.80;;;9.30;99.90;;;;;;4182640;28;20040;-63
2021/11/24 16:46:43;;;;;;;14.18;8.38;;;9.30;99.90;;;;;;4182600;28;20040;-63
2021/11/24 16:48:44;;;;;;;13.68;8.35;;;9.30;99.90;;;;;;4182264;28;20387;-63
2021/11/24 16:50:45;;;;;;;14.02;8.30;;;9.40;99.90;;;;;;4182490;28;20104;-63
2021/11/24 16:52:45;;;;;;;14.27;8.70;;;9.30;99.90;;;;;;4182458;28;20040;-63
2021/11/24 16:54:46;;;;;;;14.02;8.38;;;9.30;99.90;;;;;;4182487;28;20044;-63
2021/11/24 16:56:47;;;;;;;13.48;8.07;;;9.30;99.90;;;;;;4182161;28;20025;-63
2021/11/24 16:58:48;;;;;;;13.52;8.30;;;9.30;99.90;;;;;;4181537;28;20387;-63
2021/11/24 17:00:49;;;;;;;14.73;8.70;;;9.30;99.90;;;;;;4182202;28;20124;-63